Ms Signal — SFWL — position and weather

sailwx.info

Track history (hours):
 
Tides and Currents Weather Stations Pressure Air Temp Water Temp Dewpoint Dewpoint Depression Visibility Wind Speed Wind Dir Waves Ship Positions

Ms Signal

Last reported at 2015-Apr-21 18:33 UTC. Time now 2015-Apr-21 19:02 UTC.
Position N 59°21' E 018°08'.

Length 16 m.

Type: Diving. MMSI: 265648340.

Date/timePositionNaut miles runAvg speedWind from/ knotsBaromVisibWave heightAir tempDewpointWater temp
2015-Apr-21 18:33N 59°21' E 018°08'0 0.1
2015-Apr-21 17:33N 59°21' E 018°08'0 0.1
2015-Apr-21 16:09N 59°21' E 018°08'0 0.3
2015-Apr-21 15:29N 59°21' E 018°08'0 0.2
2015-Apr-21 14:33N 59°21' E 018°08'0 0.2
2015-Apr-21 13:18N 59°21' E 018°08'2 2.6
2015-Apr-21 12:33N 59°19' E 018°05'2 2.1
2015-Apr-21 11:33N 59°19' E 018°01'0 0.4
2015-Apr-21 10:33N 59°19' E 018°01'2 2.4
2015-Apr-21 09:33N 59°19' E 018°05'1 0.6
2015-Apr-21 08:33N 59°20' E 018°05'1 0.9
2015-Apr-21 07:32N 59°19' E 018°06'0 0.0
2015-Apr-21 06:32N 59°19' E 018°06'2 0.2
2015-Apr-20 22:30N 59°21' E 018°08'0 0.1
2015-Apr-20 21:30N 59°21' E 018°08'0 0.1
2015-Apr-20 20:31N 59°21' E 018°08'0 0.2
2015-Apr-20 19:30N 59°21' E 018°08'0 0.1
2015-Apr-20 18:29N 59°21' E 018°08'0 0.0
2015-Apr-20 17:29N 59°21' E 018°08'0 0.0
2015-Apr-20 16:32N 59°21' E 018°08'0 0.0
2015-Apr-20 15:32N 59°21' E 018°08'  
2015-Apr-16 19:31N 59°21' E 018°08'0 0.2
2015-Apr-16 18:32N 59°21' E 018°08'1 0.2
2015-Apr-16 14:33N 59°20' E 018°09'2 1.6
2015-Apr-16 13:21N 59°19' E 018°06'0 0.0
2015-Apr-16 12:31N 59°19' E 018°06'0 0.0
2015-Apr-16 10:31N 59°19' E 018°06'0 0.0
2015-Apr-16 08:05N 59°19' E 018°06'0 0.0
2015-Apr-16 07:32N 59°19' E 018°06'0 0.0
2015-Apr-16 06:32N 59°19' E 018°06'1 1.3
2015-Apr-16 05:33N 59°19' E 018°08'1 0.1
2015-Apr-15 20:13N 59°21' E 018°08'0 0.2
2015-Apr-15 19:33N 59°21' E 018°08'0 0.0
2015-Apr-15 18:33N 59°21' E 018°08'0 0.0
2015-Apr-15 17:33N 59°21' E 018°08'0 0.0
2015-Apr-15 16:31N 59°21' E 018°08'0 0.0
2015-Apr-15 15:32N 59°21' E 018°08'0 0.2
2015-Apr-15 14:33N 59°21' E 018°08'2 1.5
2015-Apr-15 13:08N 59°22' E 018°05'0 0.6
2015-Apr-15 12:30N 59°23' E 018°05'0 0.1
2015-Apr-15 11:33N 59°23' E 018°05'0 0.0
2015-Apr-15 07:33N 59°23' E 018°05'0 0.0
2015-Apr-15 06:27N 59°23' E 018°05'2 2.8
2015-Apr-15 05:33N 59°21' E 018°08'0 0.0
2015-Apr-14 20:22N 59°21' E 018°08'0 0.2
2015-Apr-14 19:24N 59°21' E 018°08'0 0.0
2015-Apr-14 18:30N 59°21' E 018°08'0 0.0
2015-Apr-14 17:33N 59°21' E 018°08'0 0.0
2015-Apr-14 16:32N 59°21' E 018°08'0 0.0
2015-Apr-14 15:32N 59°21' E 018°08'0 0.0
2015-Apr-14 14:33N 59°21' E 018°08'0 0.0
2015-Apr-14 11:05N 59°21' E 018°08'0 0.3
2015-Apr-14 10:32N 59°21' E 018°08'0 0.1
2015-Apr-14 09:32N 59°21' E 018°08'0 0.0
2015-Apr-14 07:33N 59°21' E 018°08'0 0.0
2015-Apr-14 06:33N 59°21' E 018°08'0 0.0
2015-Apr-13 21:32N 59°21' E 018°08'  
Track history (hours):
 
Tides and Currents Weather Stations Pressure Air Temp Water Temp Dewpoint Dewpoint Depression Visibility Wind Speed Wind Dir Waves Ship Positions

Ms Signal

Last reported at 2015-Apr-21 18:33 UTC. Time now 2015-Apr-21 19:02 UTC.
Position N 59°21' E 018°08'.

Length 16 m.

Type: Diving. MMSI: 265648340.

Date/timePositionNaut miles runAvg speedWind from/ knotsBaromVisibWave heightAir tempDewpointWater temp
2015-Apr-21 18:33N 59°21' E 018°08'0 0.1
2015-Apr-21 17:33N 59°21' E 018°08'0 0.1
2015-Apr-21 16:09N 59°21' E 018°08'0 0.3
2015-Apr-21 15:29N 59°21' E 018°08'0 0.2
2015-Apr-21 14:33N 59°21' E 018°08'0 0.2
2015-Apr-21 13:18N 59°21' E 018°08'2 2.6
2015-Apr-21 12:33N 59°19' E 018°05'2 2.1
2015-Apr-21 11:33N 59°19' E 018°01'0 0.4
2015-Apr-21 10:33N 59°19' E 018°01'2 2.4
2015-Apr-21 09:33N 59°19' E 018°05'1 0.6
2015-Apr-21 08:33N 59°20' E 018°05'1 0.9
2015-Apr-21 07:32N 59°19' E 018°06'0 0.0
2015-Apr-21 06:32N 59°19' E 018°06'2 0.2
2015-Apr-20 22:30N 59°21' E 018°08'0 0.1
2015-Apr-20 21:30N 59°21' E 018°08'0 0.1
2015-Apr-20 20:31N 59°21' E 018°08'0 0.2
2015-Apr-20 19:30N 59°21' E 018°08'0 0.1
2015-Apr-20 18:29N 59°21' E 018°08'0 0.0
2015-Apr-20 17:29N 59°21' E 018°08'0 0.0
2015-Apr-20 16:32N 59°21' E 018°08'0 0.0
2015-Apr-20 15:32N 59°21' E 018°08'  
2015-Apr-16 19:31N 59°21' E 018°08'0 0.2
2015-Apr-16 18:32N 59°21' E 018°08'1 0.2
2015-Apr-16 14:33N 59°20' E 018°09'2 1.6
2015-Apr-16 13:21N 59°19' E 018°06'0 0.0
2015-Apr-16 12:31N 59°19' E 018°06'0 0.0
2015-Apr-16 10:31N 59°19' E 018°06'0 0.0
2015-Apr-16 08:05N 59°19' E 018°06'0 0.0
2015-Apr-16 07:32N 59°19' E 018°06'0 0.0
2015-Apr-16 06:32N 59°19' E 018°06'1 1.3
2015-Apr-16 05:33N 59°19' E 018°08'1 0.1
2015-Apr-15 20:13N 59°21' E 018°08'0 0.2
2015-Apr-15 19:33N 59°21' E 018°08'0 0.0
2015-Apr-15 18:33N 59°21' E 018°08'0 0.0
2015-Apr-15 17:33N 59°21' E 018°08'0 0.0
2015-Apr-15 16:31N 59°21' E 018°08'0 0.0
2015-Apr-15 15:32N 59°21' E 018°08'0 0.2
2015-Apr-15 14:33N 59°21' E 018°08'2 1.5
2015-Apr-15 13:08N 59°22' E 018°05'0 0.6
2015-Apr-15 12:30N 59°23' E 018°05'0 0.1
2015-Apr-15 11:33N 59°23' E 018°05'0 0.0
2015-Apr-15 07:33N 59°23' E 018°05'0 0.0
2015-Apr-15 06:27N 59°23' E 018°05'2 2.8
2015-Apr-15 05:33N 59°21' E 018°08'0 0.0
2015-Apr-14 20:22N 59°21' E 018°08'0 0.2
2015-Apr-14 19:24N 59°21' E 018°08'0 0.0
2015-Apr-14 18:30N 59°21' E 018°08'0 0.0
2015-Apr-14 17:33N 59°21' E 018°08'0 0.0
2015-Apr-14 16:32N 59°21' E 018°08'0 0.0
2015-Apr-14 15:32N 59°21' E 018°08'0 0.0
2015-Apr-14 14:33N 59°21' E 018°08'0 0.0
2015-Apr-14 11:05N 59°21' E 018°08'0 0.3
2015-Apr-14 10:32N 59°21' E 018°08'0 0.1
2015-Apr-14 09:32N 59°21' E 018°08'0 0.0
2015-Apr-14 07:33N 59°21' E 018°08'0 0.0
2015-Apr-14 06:33N 59°21' E 018°08'0 0.0
2015-Apr-13 21:32N 59°21' E 018°08'  

Dump ship's entire track history